Time;durP1;ratioP1;P1;durP2;ratioP2;P2;SDS_P1;SDS_P2;PMS_P1;PMS_P2;Temp;Humidity;BMP_temperature;BMP_pressure;BME280_temperature;BME280_humidity;BME280_pressure;Samples;Min_cycle;Max_cycle;Signal;HPM_P1;HPM_P2
2021/08/03 00:01:00;;;;;;;3.73;2.03;;;12.80;99.90;;;;;;20811295;28;20087;-81
2021/08/03 00:11:06;;;;;;;1.80;1.52;;;12.60;99.90;;;;;;20810667;28;20029;-81
2021/08/03 00:21:11;;;;;;;2.65;1.50;;;12.70;99.90;;;;;;20793250;28;20393;-82
2021/08/03 00:31:16;;;;;;;4.82;1.60;;;12.70;99.90;;;;;;20810500;28;20037;-82
2021/08/03 00:41:22;;;;;;;3.10;1.90;;;12.40;99.90;;;;;;20792443;28;20082;-82
2021/08/03 00:51:24;;;;;;;3.45;1.75;;;12.20;99.90;;;;;;20795566;28;20542;-82
2021/08/03 01:01:28;;;;;;;2.50;1.50;;;12.00;99.90;;;;;;20802880;28;20029;-83
2021/08/03 01:11:53;;;;;;;8.23;1.65;;;11.80;99.90;;;;;;20817644;28;20025;-84
2021/08/03 01:22:02;;;;;;;5.45;1.88;;;12.00;99.90;;;;;;20800673;28;20033;-84
2021/08/03 01:32:09;;;;;;;2.55;1.20;;;12.00;99.90;;;;;;20799970;28;20057;-84
2021/08/03 01:42:12;;;;;;;5.93;1.70;;;12.10;99.90;;;;;;20815502;28;20033;-81
2021/08/03 01:52:14;;;;;;;2.85;2.10;;;11.80;99.90;;;;;;20798447;28;20100;-81
2021/08/03 02:02:17;;;;;;;2.95;2.13;;;11.30;99.90;;;;;;20797368;28;20045;-82
2021/08/03 02:12:21;;;;;;;2.78;2.00;;;11.20;99.90;;;;;;20798064;28;20029;-83
2021/08/03 02:22:22;;;;;;;4.00;1.90;;;11.40;99.90;;;;;;20830780;28;20052;-82
2021/08/03 02:32:51;;;;;;;3.13;1.90;;;11.50;99.90;;;;;;20814286;28;20124;-83
2021/08/03 02:42:54;;;;;;;4.03;1.58;;;11.50;99.90;;;;;;20794202;28;20061;-80
2021/08/03 02:53:05;;;;;;;1.85;1.40;;;11.60;99.90;;;;;;20852313;23;20059;-77
2021/08/03 03:03:12;;;;;;;2.70;1.57;;;11.60;99.90;;;;;;20845410;28;20117;-77
2021/08/03 03:13:26;;;;;;;2.78;1.48;;;11.60;99.90;;;;;;20877153;28;20059;-76
2021/08/03 03:23:32;;;;;;;1.60;1.17;;;11.50;99.90;;;;;;20918665;28;20082;-77
2021/08/03 03:33:37;;;;;;;6.15;1.50;;;11.60;99.90;;;;;;20897054;28;20025;-76
2021/08/03 03:43:38;;;;;;;5.25;1.73;;;11.50;99.90;;;;;;20917587;28;20033;-78
2021/08/03 03:53:47;;;;;;;6.07;1.70;;;11.70;99.90;;;;;;20919313;28;20029;-79
2021/08/03 04:03:52;;;;;;;5.68;1.55;;;11.70;99.90;;;;;;20907749;28;20055;-78
2021/08/03 04:13:54;;;;;;;7.88;1.70;;;11.70;99.90;;;;;;20922870;28;20495;-77
2021/08/03 04:23:56;;;;;;;2.10;1.20;;;11.80;99.90;;;;;;20944472;28;20519;-77
2021/08/03 04:33:57;;;;;;;5.43;1.70;;;11.80;99.90;;;;;;20875389;28;20462;-78
2021/08/03 04:43:58;;;;;;;3.63;2.00;;;11.90;99.90;;;;;;20871764;28;20029;-79
2021/08/03 04:53:59;;;;;;;3.17;1.90;;;11.90;99.90;;;;;;20854372;28;20018;-79
2021/08/03 05:04:00;;;;;;;3.77;2.03;;;12.00;99.90;;;;;;20851168;28;20032;-76
2021/08/03 05:14:01;;;;;;;6.87;2.50;;;12.10;99.90;;;;;;20832334;28;20065;-77
2021/08/03 05:24:02;;;;;;;3.47;2.40;;;12.00;99.90;;;;;;20844664;28;20434;-79
2021/08/03 05:34:03;;;;;;;3.00;1.90;;;12.30;99.90;;;;;;20865317;28;20025;-79
2021/08/03 05:44:04;;;;;;;4.67;1.90;;;12.50;99.90;;;;;;20843199;28;20284;-79
2021/08/03 05:54:05;;;;;;;4.70;2.03;;;12.90;99.90;;;;;;20858077;28;20120;-80
2021/08/03 06:04:06;;;;;;;5.73;2.90;;;13.00;99.90;;;;;;20853721;28;20032;-77
2021/08/03 06:14:09;;;;;;;5.87;2.73;;;13.40;99.90;;;;;;20834535;28;20120;-78
2021/08/03 06:24:10;;;;;;;6.13;2.65;;;13.80;99.90;;;;;;20833887;28;20378;-80
2021/08/03 06:34:12;;;;;;;4.43;2.40;;;13.90;99.90;;;;;;20850705;28;20029;-78
2021/08/03 06:44:22;;;;;;;3.55;2.50;;;13.90;99.90;;;;;;20830451;28;20040;-78
2021/08/03 06:54:27;;;;;;;5.05;2.45;;;14.50;99.90;;;;;;20825475;28;20033;-78
2021/08/03 07:04:50;;;;;;;3.30;2.10;;;14.50;99.90;;;;;;20825466;28;20087;-79
2021/08/03 07:14:52;;;;;;;6.75;4.05;;;15.20;99.90;;;;;;20822293;28;20033;-78
2021/08/03 07:24:53;;;;;;;3.97;2.53;;;15.60;99.90;;;;;;20821913;28;20033;-79
2021/08/03 07:34:54;;;;;;;4.70;2.60;;;15.40;99.90;;;;;;20837581;28;20021;-80
2021/08/03 07:44:55;;;;;;;6.17;2.57;;;16.20;99.90;;;;;;20824962;28;20043;-79
2021/08/03 07:54:56;;;;;;;5.07;2.90;;;16.50;99.90;;;;;;20824789;28;20025;-79
2021/08/03 08:04:56;;;;;;;2.87;2.20;;;16.50;99.90;;;;;;20825700;28;20398;-79
2021/08/03 08:14:57;;;;;;;5.00;2.90;;;17.00;99.90;;;;;;20842390;28;20025;-79
2021/08/03 08:24:58;;;;;;;10.37;3.57;;;17.70;99.90;;;;;;20826753;28;20442;-79
2021/08/03 08:34:59;;;;;;;8.67;3.60;;;17.10;99.90;;;;;;20809957;28;20072;-79
2021/08/03 08:45:01;;;;;;;5.97;3.50;;;17.10;99.90;;;;;;20839222;28;20032;-79
2021/08/03 08:55:04;;;;;;;5.63;2.38;;;17.60;99.90;;;;;;20803450;28;20172;-80
2021/08/03 09:05:05;;;;;;;5.25;2.42;;;18.80;99.90;;;;;;20825136;28;20481;-82
2021/08/03 09:15:26;;;;;;;;;;;20.00;99.90;;;;;;20822677;28;20025;-81
2021/08/03 09:25:27;;;;;;;3.97;2.15;;;20.50;99.90;;;;;;20843384;28;19916;-82
2021/08/03 09:35:29;;;;;;;4.60;2.10;;;19.40;99.90;;;;;;20862171;28;20057;-79
2021/08/03 09:45:33;;;;;;;11.63;2.20;;;19.90;99.90;;;;;;20842213;28;20033;-81
2021/08/03 09:55:35;;;;;;;3.55;1.60;;;20.40;99.90;;;;;;20840473;28;20033;-81
2021/08/03 10:05:36;;;;;;;3.27;2.10;;;20.40;99.90;;;;;;20841211;28;20123;-79
2021/08/03 10:15:36;;;;;;;2.83;1.80;;;20.90;99.90;;;;;;20859763;28;20029;-79
2021/08/03 10:25:41;;;;;;;4.97;1.60;;;20.60;99.90;;;;;;20860880;28;20037;-80
2021/08/03 10:35:47;;;;;;;10.38;1.83;;;20.60;99.90;;;;;;20846041;28;20033;-80
2021/08/03 10:46:09;;;;;;;2.00;1.63;;;19.90;99.90;;;;;;20841595;28;20097;-81
2021/08/03 10:56:10;;;;;;;2.15;1.40;;;19.10;99.90;;;;;;20836310;28;20036;-78
2021/08/03 11:06:11;;;;;;;2.87;1.13;;;17.90;99.90;;;;;;20853811;28;20598;-78
2021/08/03 11:16:21;;;;;;;3.30;0.90;;;16.90;99.90;;;;;;20851787;28;20029;-78
2021/08/03 11:26:23;;;;;;;4.32;0.82;;;16.50;99.90;;;;;;20858566;28;20386;-78
2021/08/03 11:36:23;;;;;;;1.77;1.17;;;16.60;99.90;;;;;;20845074;28;20037;-78
2021/08/03 11:46:28;;;;;;;1.80;1.37;;;16.40;99.90;;;;;;20844826;28;20040;-78
2021/08/03 11:56:29;;;;;;;3.50;1.73;;;15.90;99.90;;;;;;20835009;28;20029;-78
2021/08/03 12:06:30;;;;;;;2.85;1.50;;;15.70;99.90;;;;;;20833077;28;20056;-78
2021/08/03 12:16:32;;;;;;;3.17;1.00;;;16.20;99.90;;;;;;20818491;28;20059;-79
2021/08/03 12:26:33;;;;;;;2.73;1.30;;;16.30;99.90;;;;;;20852040;28;20060;-79
2021/08/03 12:36:44;;;;;;;2.00;1.17;;;16.20;99.90;;;;;;20815744;28;20323;-78
2021/08/03 12:46:45;;;;;;;2.67;1.63;;;16.20;99.90;;;;;;20838722;28;20033;-79
2021/08/03 12:56:57;;;;;;;2.40;1.60;;;16.20;99.90;;;;;;20846863;28;20029;-79
2021/08/03 13:07:00;;;;;;;4.20;1.80;;;16.70;99.90;;;;;;20829597;28;20038;-80
2021/08/03 13:17:03;;;;;;;2.63;1.48;;;16.70;99.90;;;;;;20829154;28;20037;-79
2021/08/03 13:27:04;;;;;;;1.95;1.33;;;16.60;99.90;;;;;;20844109;28;20030;-79
2021/08/03 13:37:05;;;;;;;2.87;1.87;;;16.40;99.90;;;;;;20861622;28;20386;-80
2021/08/03 13:47:06;;;;;;;1.80;1.50;;;16.60;99.90;;;;;;20844705;28;20124;-78
2021/08/03 13:57:07;;;;;;;2.63;1.50;;;16.90;99.90;;;;;;20840015;28;20029;-79
2021/08/03 14:07:08;;;;;;;1.60;1.40;;;17.40;99.90;;;;;;20852181;28;20037;-79
2021/08/03 14:17:09;;;;;;;4.43;1.30;;;17.70;99.90;;;;;;20798244;28;21219;-76
2021/08/03 14:27:10;;;;;;;5.13;1.10;;;17.90;99.90;;;;;;20903695;28;20689;-79
2021/08/03 14:37:11;;;;;;;1.50;0.80;;;17.50;99.90;;;;;;20835386;28;20036;-77
2021/08/03 14:47:12;;;;;;;3.70;1.17;;;17.50;99.90;;;;;;20815721;28;20037;-80
2021/08/03 14:57:13;;;;;;;2.13;1.00;;;17.40;99.90;;;;;;20814101;28;20508;-76
2021/08/03 15:07:14;;;;;;;3.77;1.20;;;17.00;99.90;;;;;;20811914;28;20083;-80
2021/08/03 15:17:15;;;;;;;5.53;1.30;;;17.00;99.90;;;;;;20815959;28;20040;-78
2021/08/03 15:27:17;;;;;;;;;;;17.00;99.90;;;;;;20816366;28;20139;-81
2021/08/03 15:37:17;;;;;;;2.60;1.52;;;16.90;99.90;;;;;;20812295;28;19916;-79
2021/08/03 15:47:18;;;;;;;1.60;1.10;;;17.00;99.90;;;;;;20813440;28;20040;-77
2021/08/03 15:57:19;;;;;;;2.73;1.70;;;17.10;99.90;;;;;;20811018;28;20041;-79
2021/08/03 16:07:20;;;;;;;4.67;1.80;;;16.80;99.90;;;;;;20821612;28;20037;-76
2021/08/03 16:17:27;;;;;;;3.57;1.87;;;16.50;99.90;;;;;;20801822;28;20037;-78
2021/08/03 16:27:29;;;;;;;4.70;1.98;;;16.20;99.90;;;;;;20822966;28;20060;-76
2021/08/03 16:37:32;;;;;;;3.90;1.90;;;16.30;99.90;;;;;;20805128;28;20037;-77
2021/08/03 16:47:33;;;;;;;2.17;1.80;;;16.30;99.90;;;;;;20836289;28;20413;-79
2021/08/03 16:57:34;;;;;;;3.25;2.20;;;16.40;99.90;;;;;;20841423;28;20037;-77
2021/08/03 17:08:04;;;;;;;3.07;1.73;;;16.40;99.90;;;;;;20804887;28;20208;-77
2021/08/03 17:18:06;;;;;;;6.88;2.28;;;16.40;99.90;;;;;;20820798;28;20033;-77
2021/08/03 17:28:07;;;;;;;7.20;2.40;;;16.10;99.90;;;;;;20839997;28;20040;-79
2021/08/03 17:38:09;;;;;;;3.70;2.43;;;15.90;99.90;;;;;;20822852;28;20037;-79
2021/08/03 17:48:13;;;;;;;3.90;2.58;;;15.90;99.90;;;;;;20824072;28;20043;-80
2021/08/03 17:58:17;;;;;;;5.47;2.13;;;15.90;99.90;;;;;;20818787;28;20410;-78
2021/08/03 18:08:19;;;;;;;3.15;2.00;;;15.80;99.90;;;;;;20817814;28;20037;-80
2021/08/03 18:18:24;;;;;;;4.30;2.70;;;15.70;99.90;;;;;;20816010;28;20064;-78
2021/08/03 18:28:31;;;;;;;4.18;2.50;;;15.70;99.90;;;;;;20819457;28;20803;-78
2021/08/03 18:38:38;;;;;;;5.05;2.45;;;15.70;99.90;;;;;;20812367;28;20394;-79
2021/08/03 18:48:41;;;;;;;4.65;2.15;;;15.40;99.90;;;;;;20825971;28;20060;-79
2021/08/03 18:58:43;;;;;;;2.90;2.20;;;15.10;99.90;;;;;;20808546;28;20037;-78
2021/08/03 19:09:09;;;;;;;;;;;14.80;99.90;;;;;;20807594;28;20494;-78
2021/08/03 19:19:10;;;;;;;7.20;1.70;;;14.80;99.90;;;;;;20804641;28;19917;-78
2021/08/03 19:29:12;;;;;;;8.63;2.33;;;14.70;99.90;;;;;;20812585;28;20120;-77
2021/08/03 19:39:13;;;;;;;4.10;2.63;;;14.60;99.90;;;;;;20816014;28;20493;-77
2021/08/03 19:49:23;;;;;;;3.17;1.70;;;14.50;99.90;;;;;;20818700;28;20478;-78
2021/08/03 19:59:28;;;;;;;2.20;1.52;;;14.60;99.90;;;;;;20832243;28;20037;-79
2021/08/03 20:09:30;;;;;;;2.40;1.58;;;14.60;99.90;;;;;;20829431;28;20130;-77
2021/08/03 20:19:31;;;;;;;3.50;1.30;;;14.50;99.90;;;;;;20827042;28;20136;-79
2021/08/03 20:29:35;;;;;;;13.10;1.83;;;14.50;99.90;;;;;;20786251;28;20083;-78
2021/08/03 20:39:56;;;;;;;3.15;1.60;;;14.40;99.90;;;;;;20820949;28;20071;-77
2021/08/03 20:49:57;;;;;;;3.42;2.33;;;14.20;99.90;;;;;;20816214;28;20040;-77
2021/08/03 20:59:59;;;;;;;3.33;2.40;;;14.20;99.90;;;;;;20814045;28;20025;-77
2021/08/03 21:10:03;;;;;;;8.80;2.40;;;14.20;99.90;;;;;;20817976;28;20025;-78
2021/08/03 21:20:05;;;;;;;6.70;2.50;;;14.30;99.90;;;;;;20823713;28;20029;-78
2021/08/03 21:30:25;;;;;;;4.40;2.63;;;14.40;99.90;;;;;;20823495;28;20049;-78
2021/08/03 21:40:44;;;;;;;8.23;2.13;;;14.40;99.90;;;;;;20817800;28;20452;-76
2021/08/03 21:51:04;;;;;;;3.50;2.20;;;14.30;99.90;;;;;;20842306;28;20152;-76
2021/08/03 22:01:04;;;;;;;6.53;2.60;;;14.20;99.90;;;;;;20846572;28;20168;-77
2021/08/03 22:11:06;;;;;;;3.50;2.10;;;14.20;99.90;;;;;;20814702;28;20057;-77
2021/08/03 22:21:07;;;;;;;6.03;1.95;;;14.20;99.90;;;;;;20838683;28;20029;-76
2021/08/03 22:31:07;;;;;;;7.20;2.87;;;14.10;99.90;;;;;;20832389;28;20075;-77
2021/08/03 22:41:09;;;;;;;6.23;1.93;;;13.90;99.90;;;;;;20812954;28;20029;-76
2021/08/03 22:51:10;;;;;;;3.23;2.10;;;14.00;99.90;;;;;;20828370;28;20036;-76
2021/08/03 23:01:11;;;;;;;4.77;2.20;;;14.00;99.90;;;;;;20833051;28;20272;-77
2021/08/03 23:11:11;;;;;;;4.80;2.23;;;13.90;99.90;;;;;;20840908;28;20117;-78
2021/08/03 23:21:12;;;;;;;7.57;2.50;;;13.70;99.90;;;;;;20840454;28;20033;-77
2021/08/03 23:31:13;;;;;;;4.80;2.60;;;13.60;99.90;;;;;;20868526;28;20047;-78
2021/08/03 23:41:14;;;;;;;6.73;3.00;;;13.50;99.90;;;;;;20924371;28;20033;-78
2021/08/03 23:51:15;;;;;;;4.10;2.30;;;13.70;99.90;;;;;;20923181;28;20460;-77
